Alstonville, New South Wales

2:23 AM AEST on September 24, 2014 (GMT +1000)
INSWMCLE1 | Change Station
CLOSE
Current Station
Personal Weather Station
Location: McLeans Ridges, NSW
Elevation: 410 ft
Nearby Weather Stations

Elev 410 ft 28.79 °S, 153.40 °E | Updated 8 minutes ago

Mostly Cloudy
Mostly Cloudy
58.8 °F
Feels Like 58.8 °F
N
0.0
Wind Variable Wind from North
Gusts 4.9 mph

Today
High -- | Low -- °F
--% Chance of Precip.
Yesterday
High -- | Low -- °F
Precip. -- in
5:34 AM 5:43 PM
Waning Crescent, 0% visible
Pressure 30.27 in
Visibility 6.2 miles
Clouds Scattered Clouds 3000 ft
Mostly Cloudy 6500 ft
Dew Point 47 °F
Humidity 64%
Rainfall -999.00 in
Snow Depth Not available.
UV 0 out of 12
Pollen Not available.
Air Quality Not available.
Flu Activity Not available.
METAR YLIS 231600Z AUTO 00000KT 9999 // SCT030 BKN065 13/11 Q1025

More Conditions Fewer Conditions

Pressure 30.27 in
Visibility 6.2 miles
Clouds Scattered Clouds 3000 ft
Mostly Cloudy 6500 ft
Dew Point 47 °F
Humidity 64%
Rainfall -999.00 in
Snow Depth Not available.
UV 0 out of 12
Pollen Not available.
Air Quality Not available.
Flu Activity Not available.
METAR YLIS 231600Z AUTO 00000KT 9999 // SCT030 BKN065 13/11 Q1025

More Conditions Fewer Conditions

10-Day Weather Forecast

Almanac

Astronomy

Sep. 24, 2014 Rise Set
Actual Time 5:34 AM AEST 5:43 PM AEST
Civil Twilight 5:10 AM AEST 6:06 PM AEST
Nautical Twilight 4:43 AM AEST 6:34 PM AEST
Astronomical Twilight 4:15 AM AEST 7:02 PM AEST
Moon 5:16 AM AEST (9/24) 5:42 PM AEST (9/24)
Length of Visible Light 12h 56m
Length of Day
12h 09m
Tomorrow will be 1m 44s longer.
Waning Crescent, 0% of the Moon is Illuminated
Sep 23
Waning Crescent
Sep 24
New
Oct 1
First Quarter
Oct 8
Full
Oct 15
Last Quarter

Yesterday's Extremes

Country Highs Country Lows

Community

WunderPhotos

Upload Photos

1,755,743 photos uploaded!

WunderBlogs® & News

By Dr. Jeff Masters
Director of Meteorology, Weather Underground
By Kari Strenfel
Meteorologist, Weather Underground
By Christopher C. Burt
Weather Historian, Weather Underground
September 23, 2014
September 23, 2014
September 23, 2014

Nearby

Snow Depth

Not available.

Earthquake Activity

City Distance Mag. Time & Date
No recent earthquake activity has been reported nearby.
Minimum magnitude displayed is 2.5.

Coastal Water Temperatures

Place Temperature
No Stations Reporting

Nearby Weather Stations